Time;durP1;ratioP1;P1;durP2;ratioP2;P2;SDS_P1;SDS_P2;PMS_P1;PMS_P2;Temp;Humidity;BMP_temperature;BMP_pressure;BME280_temperature;BME280_humidity;BME280_pressure;Samples;Min_cycle;Max_cycle;Signal;HPM_P1;HPM_P2
2021/03/30 00:01:15;;;;;;;8.05;3.20;;;9.70;95.80;;;;;;5133149;27;20496;-53
2021/03/30 00:03:42;;;;;;;12.27;3.10;;;9.70;95.80;;;;;;5132932;27;20043;-54
2021/03/30 00:06:08;;;;;;;12.25;3.60;;;9.80;95.60;;;;;;5133104;27;20043;-52
2021/03/30 00:08:34;;;;;;;13.68;3.20;;;9.70;95.60;;;;;;5133190;27;20498;-53
2021/03/30 00:11:00;;;;;;;8.63;3.65;;;9.70;95.60;;;;;;5133181;27;20148;-54
2021/03/30 00:13:26;;;;;;;9.50;3.05;;;9.80;95.40;;;;;;5133033;27;20045;-54
2021/03/30 00:15:51;;;;;;;9.90;3.42;;;9.80;95.50;;;;;;5132536;27;20450;-52
2021/03/30 00:18:17;;;;;;;9.93;3.53;;;9.70;95.50;;;;;;5114590;28;20505;-53
2021/03/30 00:20:43;;;;;;;8.38;3.10;;;9.70;95.20;;;;;;5132759;27;20042;-54
2021/03/30 00:23:09;;;;;;;15.32;3.78;;;9.70;95.60;;;;;;5133170;28;20047;-54
2021/03/30 00:25:35;;;;;;;9.77;3.10;;;9.70;95.60;;;;;;5132667;27;20396;-54
2021/03/30 00:28:01;;;;;;;11.98;3.25;;;9.70;95.40;;;;;;5132754;28;20373;-53
2021/03/30 00:30:26;;;;;;;10.23;2.88;;;9.70;95.40;;;;;;5132687;28;20050;-54
2021/03/30 00:32:52;;;;;;;12.05;3.55;;;9.70;95.50;;;;;;5132632;28;20134;-54
2021/03/30 00:35:19;;;;;;;11.80;3.03;;;9.70;95.70;;;;;;5132636;28;20149;-54
2021/03/30 00:37:44;;;;;;;9.88;2.88;;;9.60;96.10;;;;;;5132680;28;20054;-53
2021/03/30 00:40:12;;;;;;;10.10;3.15;;;9.50;96.30;;;;;;5132477;28;20039;-55
2021/03/30 00:42:39;;;;;;;12.00;3.35;;;9.50;96.40;;;;;;5132690;28;20039;-54
2021/03/30 00:45:07;;;;;;;8.70;2.75;;;9.50;96.20;;;;;;5132415;28;20070;-54
2021/03/30 00:47:34;;;;;;;9.45;2.95;;;9.50;96.40;;;;;;5132443;28;20131;-52
2021/03/30 00:50:00;;;;;;;6.13;2.80;;;9.50;96.40;;;;;;5132691;28;20043;-53
2021/03/30 00:52:27;;;;;;;12.40;3.72;;;9.40;96.90;;;;;;5132706;28;20050;-53
2021/03/30 00:54:53;;;;;;;7.32;3.67;;;9.40;96.40;;;;;;5132553;28;20043;-53
2021/03/30 00:57:19;;;;;;;12.50;3.55;;;9.40;96.90;;;;;;5132432;28;20043;-54
2021/03/30 00:59:46;;;;;;;7.75;3.58;;;9.40;96.50;;;;;;5132456;28;20066;-54
2021/03/30 01:02:12;;;;;;;8.40;2.85;;;9.30;96.90;;;;;;5132409;28;20043;-54
2021/03/30 01:04:38;;;;;;;12.43;3.72;;;9.30;96.90;;;;;;5132274;28;20499;-53
2021/03/30 01:07:06;;;;;;;9.43;3.83;;;9.30;96.90;;;;;;5132520;28;20043;-54
2021/03/30 01:09:57;;;;;;;17.13;4.50;;;9.20;96.90;;;;;;5132433;28;20136;-52
2021/03/30 01:12:29;;;;;;;9.60;3.67;;;9.10;97.20;;;;;;5132469;28;20070;-53
2021/03/30 01:15:31;;;;;;;8.50;3.60;;;9.20;96.80;;;;;;5132493;28;20468;-54
2021/03/30 01:18:06;;;;;;;6.70;3.20;;;9.10;97.20;;;;;;5132376;28;20039;-53
2021/03/30 01:21:00;;;;;;;10.25;4.20;;;9.10;97.30;;;;;;5132237;28;20047;-53
2021/03/30 01:24:04;;;;;;;9.48;3.95;;;9.20;96.80;;;;;;5114282;28;20031;-53
2021/03/30 01:26:48;;;;;;;17.08;3.47;;;9.20;97.50;;;;;;5038918;28;20496;-53
2021/03/30 01:29:23;;;;;;;11.98;3.20;;;9.20;96.80;;;;;;5051153;28;20041;-51
2021/03/30 01:31:54;;;;;;;13.85;3.53;;;9.20;97.00;;;;;;5052613;28;20045;-52
2021/03/30 01:34:21;;;;;;;9.07;3.25;;;9.20;97.00;;;;;;5052692;28;20045;-53
2021/03/30 01:36:49;;;;;;;12.35;3.78;;;9.20;97.00;;;;;;5052517;28;20055;-52
2021/03/30 01:39:17;;;;;;;15.32;4.30;;;9.20;97.00;;;;;;5052320;28;20099;-54
2021/03/30 01:41:46;;;;;;;13.30;4.03;;;9.20;97.30;;;;;;5052398;28;20405;-53
2021/03/30 01:44:13;;;;;;;5.78;2.97;;;9.10;97.40;;;;;;5052406;28;20053;-54
2021/03/30 01:46:41;;;;;;;16.95;3.60;;;9.00;98.10;;;;;;5052202;28;20037;-54
2021/03/30 01:49:08;;;;;;;7.82;3.80;;;8.90;98.00;;;;;;5052239;28;20522;-54
2021/03/30 01:51:34;;;;;;;11.23;4.32;;;8.80;98.20;;;;;;5052160;28;20067;-54
2021/03/30 01:54:00;;;;;;;13.10;3.92;;;8.80;97.60;;;;;;5052137;28;20052;-54
2021/03/30 01:56:29;;;;;;;15.48;4.70;;;8.80;97.40;;;;;;5052055;28;20049;-53
2021/03/30 01:58:58;;;;;;;12.13;4.03;;;8.80;97.50;;;;;;5052321;28;20116;-54
2021/03/30 02:01:25;;;;;;;12.07;4.00;;;8.80;97.50;;;;;;5051849;28;20091;-54
2021/03/30 02:03:52;;;;;;;12.15;3.83;;;8.80;97.40;;;;;;5113308;27;20092;-54
2021/03/30 02:06:19;;;;;;;12.73;3.95;;;8.80;97.50;;;;;;5135292;27;20042;-54
2021/03/30 02:08:46;;;;;;;15.27;4.95;;;8.80;97.70;;;;;;5135231;27;20047;-54
2021/03/30 02:11:21;;;;;;;9.38;3.75;;;8.80;97.70;;;;;;5135113;27;20047;-53
2021/03/30 02:13:55;;;;;;;8.00;3.55;;;8.70;97.70;;;;;;5135331;27;20039;-54
2021/03/30 02:16:24;;;;;;;14.23;4.60;;;8.70;97.60;;;;;;5135123;27;20088;-54
2021/03/30 02:19:10;;;;;;;10.80;4.35;;;8.60;97.90;;;;;;5134955;27;20404;-54
2021/03/30 02:21:52;;;;;;;11.82;4.07;;;8.60;97.80;;;;;;5135099;27;20040;-54
2021/03/30 02:24:20;;;;;;;8.30;4.10;;;8.60;98.20;;;;;;5135087;27;20039;-54
2021/03/30 02:26:49;;;;;;;10.45;3.92;;;8.60;98.10;;;;;;5134847;27;20043;-54
2021/03/30 02:29:19;;;;;;;14.65;4.53;;;8.60;98.00;;;;;;5135133;27;20135;-53
2021/03/30 02:31:47;;;;;;;8.77;3.20;;;8.60;97.90;;;;;;5134766;27;20457;-53
2021/03/30 02:34:15;;;;;;;11.60;3.90;;;8.60;97.90;;;;;;5134905;27;20043;-54
2021/03/30 02:36:44;;;;;;;11.35;4.25;;;8.50;98.00;;;;;;5116461;27;20449;-54
2021/03/30 02:39:12;;;;;;;10.85;4.13;;;8.50;98.50;;;;;;5134797;27;20047;-52
2021/03/30 02:41:40;;;;;;;7.97;3.88;;;8.40;98.90;;;;;;5134603;27;20039;-53
2021/03/30 02:44:08;;;;;;;15.60;4.18;;;8.40;98.70;;;;;;5134558;27;20043;-53
2021/03/30 02:46:37;;;;;;;12.52;4.28;;;8.40;98.70;;;;;;5134427;27;20047;-54
2021/03/30 02:49:02;;;;;;;10.17;4.13;;;8.20;99.30;;;;;;5134620;27;20384;-54
2021/03/30 02:51:30;;;;;;;11.13;4.40;;;8.20;99.30;;;;;;5134493;27;20092;-54
2021/03/30 02:53:57;;;;;;;9.50;4.40;;;8.20;99.00;;;;;;5134417;27;20067;-54
2021/03/30 02:56:24;;;;;;;14.00;4.47;;;8.30;98.60;;;;;;5134349;27;20035;-54
2021/03/30 02:58:53;;;;;;;7.60;3.45;;;8.30;98.40;;;;;;5134145;27;20039;-54
2021/03/30 03:01:21;;;;;;;7.85;3.65;;;8.30;98.40;;;;;;5134241;27;20047;-54
2021/03/30 03:03:49;;;;;;;9.98;3.70;;;8.30;98.40;;;;;;5134186;27;20092;-54
2021/03/30 03:06:16;;;;;;;12.57;3.72;;;8.30;98.40;;;;;;5134190;27;20134;-54
2021/03/30 03:08:42;;;;;;;13.32;4.85;;;8.30;98.40;;;;;;5133998;27;20042;-54
2021/03/30 03:11:11;;;;;;;12.00;4.38;;;8.30;98.40;;;;;;5133924;27;20512;-53
2021/03/30 03:13:38;;;;;;;9.75;3.80;;;8.10;99.10;;;;;;5134119;27;20043;-54
2021/03/30 03:16:06;;;;;;;11.95;4.20;;;8.20;98.80;;;;;;5133898;27;20497;-53
2021/03/30 03:18:34;;;;;;;10.13;4.15;;;8.30;98.70;;;;;;5133919;27;20051;-54
2021/03/30 03:21:01;;;;;;;13.98;3.97;;;8.20;98.50;;;;;;5133692;27;20041;-53
2021/03/30 03:23:28;;;;;;;11.15;4.32;;;8.20;98.50;;;;;;5133846;27;20035;-54
2021/03/30 03:25:54;;;;;;;10.32;4.20;;;8.30;98.40;;;;;;5133456;27;20077;-54
2021/03/30 03:28:19;;;;;;;12.38;4.45;;;8.30;98.60;;;;;;5133700;27;20039;-54
2021/03/30 03:30:46;;;;;;;12.13;4.38;;;8.20;98.90;;;;;;5133509;27;20039;-54
2021/03/30 03:33:13;;;;;;;12.52;4.18;;;8.20;99.00;;;;;;5133721;27;20074;-55
2021/03/30 03:35:39;;;;;;;10.52;4.30;;;8.20;99.30;;;;;;5133683;27;20047;-54
2021/03/30 03:38:06;;;;;;;11.52;4.13;;;8.20;99.30;;;;;;5133441;27;20408;-53
2021/03/30 03:40:33;;;;;;;15.52;4.45;;;8.10;99.20;;;;;;5133360;27;20120;-54
2021/03/30 03:42:59;;;;;;;14.75;4.78;;;8.20;99.20;;;;;;5133689;27;20035;-52
2021/03/30 03:45:25;;;;;;;16.75;4.60;;;8.20;99.40;;;;;;5133442;27;20046;-54
2021/03/30 03:47:50;;;;;;;10.35;4.07;;;8.20;99.20;;;;;;5133313;27;20126;-54
2021/03/30 03:50:16;;;;;;;16.92;5.15;;;8.20;99.30;;;;;;5133126;27;20039;-53
2021/03/30 03:52:50;;;;;;;14.57;5.05;;;8.20;99.20;;;;;;5132747;27;20054;-54
2021/03/30 03:55:17;;;;;;;17.35;4.55;;;8.20;99.40;;;;;;5114974;27;20035;-54
2021/03/30 03:57:55;;;;;;;12.80;5.10;;;8.10;99.70;;;;;;5133207;27;20416;-52
2021/03/30 04:00:23;;;;;;;13.18;4.75;;;8.10;99.90;;;;;;5133078;27;20537;-54
2021/03/30 04:02:56;;;;;;;11.40;5.32;;;8.00;99.90;;;;;;5133081;27;20162;-53
2021/03/30 04:05:32;;;;;;;13.82;4.90;;;8.00;99.90;;;;;;5115161;27;20047;-53
2021/03/30 04:08:04;;;;;;;17.52;5.70;;;8.00;99.90;;;;;;5133141;27;20149;-53
2021/03/30 04:10:32;;;;;;;11.43;4.65;;;7.90;99.90;;;;;;5133067;27;20555;-54
2021/03/30 04:12:59;;;;;;;;;;;7.80;99.90;;;;;;5133693;27;20050;-54
2021/03/30 04:15:26;;;;;;;11.18;5.22;;;7.70;99.90;;;;;;5132914;27;19927;-53
2021/03/30 04:17:52;;;;;;;10.77;4.97;;;7.70;99.90;;;;;;5114907;28;20110;-54
2021/03/30 04:20:20;;;;;;;13.63;5.07;;;7.70;99.90;;;;;;5133002;27;20039;-54
2021/03/30 04:23:04;;;;;;;14.15;5.63;;;7.70;99.90;;;;;;5133035;27;20054;-54
2021/03/30 04:25:30;;;;;;;16.73;5.55;;;7.80;99.90;;;;;;5132866;28;20465;-53
2021/03/30 04:27:56;;;;;;;10.43;5.35;;;7.80;99.90;;;;;;5132649;27;20053;-54
2021/03/30 04:30:23;;;;;;;13.82;5.40;;;7.80;99.90;;;;;;5132997;28;20412;-54
2021/03/30 04:32:49;;;;;;;14.68;5.43;;;7.80;99.90;;;;;;5132779;28;20050;-53
2021/03/30 04:35:15;;;;;;;11.65;5.22;;;7.70;99.90;;;;;;5133173;28;20433;-54
2021/03/30 04:37:41;;;;;;;18.92;6.03;;;7.70;99.90;;;;;;5133045;28;20070;-53
2021/03/30 04:40:09;;;;;;;11.30;5.88;;;7.70;99.90;;;;;;5132444;28;20043;-55
2021/03/30 04:42:35;;;;;;;12.10;5.25;;;7.70;99.90;;;;;;5132920;28;20039;-54
2021/03/30 04:45:01;;;;;;;13.07;5.68;;;7.70;99.90;;;;;;5132454;28;20542;-54
2021/03/30 04:47:27;;;;;;;10.90;5.78;;;7.70;99.90;;;;;;5132753;28;20071;-55
2021/03/30 04:49:55;;;;;;;19.45;6.15;;;7.50;99.90;;;;;;5132641;28;20417;-54
2021/03/30 04:52:22;;;;;;;18.85;5.70;;;7.50;99.90;;;;;;5132342;28;20039;-54
2021/03/30 04:54:49;;;;;;;13.75;6.40;;;7.50;99.90;;;;;;5132535;28;20058;-54
2021/03/30 04:57:15;;;;;;;13.15;6.28;;;7.50;99.90;;;;;;5132524;28;20036;-54
2021/03/30 04:59:42;;;;;;;14.15;5.88;;;7.50;99.90;;;;;;5132400;28;20043;-54
2021/03/30 05:02:09;;;;;;;13.52;5.47;;;7.50;99.90;;;;;;5132524;27;20054;-54
2021/03/30 05:04:36;;;;;;;19.15;6.57;;;7.50;99.90;;;;;;5135705;27;20126;-53
2021/03/30 05:07:02;;;;;;;14.05;7.45;;;7.50;99.90;;;;;;5136394;27;20054;-54
2021/03/30 05:09:28;;;;;;;13.57;7.22;;;7.50;99.90;;;;;;5136411;27;20056;-54
2021/03/30 05:11:54;;;;;;;11.57;7.57;;;7.50;99.90;;;;;;5136295;27;20129;-53
2021/03/30 05:14:20;;;;;;;21.25;6.90;;;7.50;99.90;;;;;;5136379;27;20054;-54
2021/03/30 05:16:46;;;;;;;14.88;7.05;;;7.50;99.90;;;;;;5136491;27;20043;-53
2021/03/30 05:19:11;;;;;;;14.77;7.47;;;7.50;99.90;;;;;;5136383;27;20142;-53
2021/03/30 05:21:37;;;;;;;15.52;8.45;;;7.50;99.90;;;;;;5136004;27;20047;-52
2021/03/30 05:24:03;;;;;;;12.18;6.95;;;7.50;99.90;;;;;;5136092;27;20035;-54
2021/03/30 05:26:29;;;;;;;14.73;7.85;;;7.50;99.90;;;;;;5135936;27;20503;-51
2021/03/30 05:28:55;;;;;;;13.60;6.45;;;7.50;99.90;;;;;;5135907;27;20043;-54
2021/03/30 05:31:21;;;;;;;13.95;6.63;;;7.50;99.90;;;;;;5136182;27;20050;-54
2021/03/30 05:33:46;;;;;;;19.35;8.13;;;7.50;99.90;;;;;;5136065;27;20049;-54
2021/03/30 05:36:14;;;;;;;17.85;6.95;;;7.50;99.90;;;;;;5136123;27;20051;-54
2021/03/30 05:38:39;;;;;;;16.98;7.53;;;7.50;99.90;;;;;;5135823;27;20046;-53
2021/03/30 05:41:08;;;;;;;17.05;7.18;;;7.50;99.90;;;;;;5135818;27;20039;-54
2021/03/30 05:43:36;;;;;;;10.65;6.43;;;7.50;99.90;;;;;;5136008;27;20095;-54
2021/03/30 05:46:02;;;;;;;19.63;7.75;;;7.50;99.90;;;;;;5135904;27;20035;-51
2021/03/30 05:48:29;;;;;;;15.35;7.47;;;7.50;99.90;;;;;;5135617;27;20041;-54
2021/03/30 05:50:57;;;;;;;20.33;8.30;;;7.50;99.90;;;;;;5135523;27;20038;-55
2021/03/30 05:53:24;;;;;;;16.67;7.65;;;7.60;99.90;;;;;;5135717;27;20428;-52
2021/03/30 05:55:56;;;;;;;13.05;6.65;;;7.60;99.90;;;;;;5135429;27;20046;-55
2021/03/30 05:58:24;;;;;;;14.50;6.90;;;7.70;99.90;;;;;;5135356;27;20496;-54
2021/03/30 06:00:52;;;;;;;15.50;7.07;;;7.80;99.90;;;;;;5135322;27;20127;-54
2021/03/30 06:03:27;;;;;;;21.13;6.97;;;8.00;99.90;;;;;;5135451;27;20043;-55
2021/03/30 06:05:55;;;;;;;13.60;7.30;;;8.20;99.90;;;;;;5135270;27;20480;-53
2021/03/30 06:08:24;;;;;;;9.40;6.43;;;8.30;99.90;;;;;;5135351;27;20043;-54
2021/03/30 06:10:56;;;;;;;14.25;7.05;;;8.40;99.90;;;;;;5135269;27;20043;-55
2021/03/30 06:13:48;;;;;;;22.40;7.35;;;8.60;99.90;;;;;;5135223;27;20077;-54
2021/03/30 06:16:26;;;;;;;14.75;6.40;;;8.90;99.90;;;;;;5135004;27;20504;-55
2021/03/30 06:19:23;;;;;;;15.25;7.15;;;9.20;99.90;;;;;;5135143;27;20527;-54
2021/03/30 06:22:02;;;;;;;15.48;6.32;;;9.40;99.90;;;;;;5031591;28;20549;-55
2021/03/30 06:24:32;;;;;;;13.15;6.82;;;9.60;99.80;;;;;;5031641;28;20068;-55
2021/03/30 06:27:04;;;;;;;12.75;7.18;;;9.80;99.60;;;;;;5043308;28;20124;-55
2021/03/30 06:29:35;;;;;;;12.52;6.68;;;10.00;99.40;;;;;;5051498;28;20048;-54
2021/03/30 06:32:09;;;;;;;14.02;7.28;;;10.20;99.30;;;;;;5051481;28;20049;-54
2021/03/30 06:34:43;;;;;;;17.98;8.27;;;10.30;98.60;;;;;;5051627;28;20048;-55
2021/03/30 06:37:28;;;;;;;12.60;6.53;;;10.50;98.60;;;;;;5051230;28;20088;-55
2021/03/30 06:40:21;;;;;;;10.82;6.25;;;10.80;98.20;;;;;;5051275;28;20040;-55
2021/03/30 06:42:56;;;;;;;13.75;6.35;;;10.90;97.70;;;;;;5051347;28;20044;-55
2021/03/30 06:45:28;;;;;;;13.80;6.32;;;11.10;97.50;;;;;;5051277;28;20083;-55
2021/03/30 06:47:56;;;;;;;13.88;7.18;;;11.40;97.10;;;;;;5051332;28;20045;-55
2021/03/30 06:50:30;;;;;;;13.48;6.30;;;11.50;97.10;;;;;;5051205;28;20052;-55
2021/03/30 06:53:07;;;;;;;17.27;6.07;;;11.60;96.20;;;;;;5051129;28;20059;-55
2021/03/30 06:55:33;;;;;;;16.30;6.45;;;11.80;96.20;;;;;;5051145;28;20059;-55
2021/03/30 06:58:01;;;;;;;15.63;5.95;;;11.80;96.10;;;;;;5095036;27;20492;-55
2021/03/30 07:00:36;;;;;;;13.20;6.23;;;12.10;95.70;;;;;;5134100;27;20032;-55
2021/03/30 07:03:10;;;;;;;13.18;5.75;;;12.20;95.30;;;;;;5134152;27;20043;-55
2021/03/30 07:05:40;;;;;;;13.60;5.95;;;12.60;95.10;;;;;;5134271;27;20449;-55
2021/03/30 07:08:11;;;;;;;12.55;6.57;;;12.70;94.70;;;;;;5134182;27;20047;-55
2021/03/30 07:10:43;;;;;;;17.10;6.32;;;12.90;93.90;;;;;;5133874;27;20468;-55
2021/03/30 07:13:10;;;;;;;16.55;6.40;;;13.30;94.10;;;;;;5134072;27;20068;-55
2021/03/30 07:15:36;;;;;;;15.85;6.13;;;13.70;93.50;;;;;;5133954;27;20035;-54
2021/03/30 07:18:17;;;;;;;14.90;5.88;;;14.10;92.90;;;;;;5133860;27;20104;-55
2021/03/30 07:20:52;;;;;;;18.95;5.88;;;14.40;91.70;;;;;;5133772;27;20445;-55
2021/03/30 07:23:25;;;;;;;16.08;5.70;;;14.80;91.00;;;;;;5133821;27;20043;-55
2021/03/30 07:26:12;;;;;;;16.92;5.75;;;14.90;90.70;;;;;;5133190;27;20039;-55
2021/03/30 07:28:43;;;;;;;16.45;5.95;;;15.40;89.90;;;;;;5133749;27;20492;-55
2021/03/30 07:31:31;;;;;;;14.50;5.30;;;15.50;89.20;;;;;;5133607;27;20062;-55
2021/03/30 07:34:09;;;;;;;10.50;5.82;;;15.80;87.30;;;;;;5133553;27;20043;-55
2021/03/30 07:36:43;;;;;;;21.02;5.90;;;15.70;86.70;;;;;;5133723;27;20051;-55
2021/03/30 07:39:09;;;;;;;15.55;6.03;;;15.70;86.50;;;;;;5133601;27;20047;-55
2021/03/30 07:41:39;;;;;;;10.45;4.75;;;16.20;85.70;;;;;;5133248;27;20040;-55
2021/03/30 07:44:05;;;;;;;13.32;5.40;;;16.10;84.80;;;;;;5133298;27;20114;-55
2021/03/30 07:46:32;;;;;;;13.43;5.07;;;16.40;83.60;;;;;;5133348;27;20119;-55
2021/03/30 07:48:59;;;;;;;16.25;5.80;;;16.30;85.10;;;;;;5133214;27;20035;-55
2021/03/30 07:51:33;;;;;;;15.40;5.72;;;16.20;83.20;;;;;;5114824;27;20412;-55
2021/03/30 07:54:11;;;;;;;18.13;5.80;;;16.40;82.70;;;;;;5133270;27;20392;-55
2021/03/30 07:56:40;;;;;;;13.77;5.32;;;16.50;82.30;;;;;;5114818;27;20068;-55
2021/03/30 07:59:06;;;;;;;14.85;5.38;;;16.70;82.60;;;;;;5133465;27;20137;-55
2021/03/30 08:01:35;;;;;;;10.57;5.20;;;16.80;81.90;;;;;;5133045;27;20046;-55
2021/03/30 08:04:02;;;;;;;11.70;4.82;;;16.90;79.10;;;;;;5133134;27;20046;-55
2021/03/30 08:06:46;;;;;;;15.65;5.32;;;17.10;79.80;;;;;;5132964;27;20039;-55
2021/03/30 08:09:14;;;;;;;15.77;6.20;;;17.20;78.60;;;;;;5133486;27;20488;-55
2021/03/30 08:11:41;;;;;;;12.07;4.97;;;17.40;78.40;;;;;;5133233;27;20073;-55
2021/03/30 08:14:16;;;;;;;14.55;5.03;;;17.50;77.40;;;;;;5133030;27;20035;-55
2021/03/30 08:16:44;;;;;;;15.52;5.72;;;17.70;76.80;;;;;;5132932;27;20477;-55
2021/03/30 08:19:13;;;;;;;13.93;6.30;;;17.80;76.60;;;;;;5132993;27;20047;-55
2021/03/30 08:22:05;;;;;;;13.88;4.95;;;18.00;76.40;;;;;;5132745;27;20046;-55
2021/03/30 08:24:46;;;;;;;13.73;5.57;;;18.10;75.40;;;;;;5029773;28;20057;-55
2021/03/30 08:27:39;;;;;;;12.63;5.28;;;18.50;72.70;;;;;;5029662;28;20060;-55
2021/03/30 08:30:05;;;;;;;17.65;5.65;;;18.60;71.90;;;;;;5026647;28;20519;-55
2021/03/30 08:32:33;;;;;;;14.23;5.70;;;18.90;72.50;;;;;;5029541;28;20150;-55
2021/03/30 08:35:10;;;;;;;19.25;6.13;;;19.00;72.10;;;;;;5029548;28;20183;-55
2021/03/30 08:37:41;;;;;;;14.25;5.55;;;19.20;71.00;;;;;;5038581;28;20041;-56
2021/03/30 08:40:34;;;;;;;17.55;5.47;;;19.20;71.50;;;;;;5039045;28;20041;-55
2021/03/30 08:43:17;;;;;;;17.35;5.18;;;19.10;70.90;;;;;;5031287;28;20625;-55
2021/03/30 08:46:01;;;;;;;15.45;6.00;;;19.30;70.20;;;;;;5032777;28;20099;-55
2021/03/30 08:48:40;;;;;;;17.20;6.57;;;19.40;69.00;;;;;;5033683;28;20072;-55
2021/03/30 08:51:08;;;;;;;17.70;6.03;;;19.50;67.40;;;;;;5033854;28;20462;-55
2021/03/30 08:53:35;;;;;;;16.67;6.03;;;19.60;65.80;;;;;;5033495;28;20068;-55
2021/03/30 08:56:06;;;;;;;18.63;5.75;;;19.70;67.10;;;;;;5033675;28;20058;-55
2021/03/30 08:58:35;;;;;;;10.15;5.35;;;19.90;67.80;;;;;;5033410;28;20140;-55
2021/03/30 09:01:06;;;;;;;17.00;6.13;;;20.00;66.60;;;;;;5066386;27;20050;-55
2021/03/30 09:03:31;;;;;;;13.93;5.97;;;20.20;68.00;;;;;;5136559;27;20043;-55
2021/03/30 09:05:57;;;;;;;15.60;5.82;;;20.30;66.90;;;;;;5136414;27;20065;-55
2021/03/30 09:08:37;;;;;;;11.65;5.38;;;20.40;65.40;;;;;;5136659;27;20047;-55
2021/03/30 09:11:20;;;;;;;14.50;5.43;;;20.70;63.90;;;;;;5136630;27;20047;-55
2021/03/30 09:13:57;;;;;;;16.88;6.07;;;20.80;63.80;;;;;;5136016;27;20042;-55
2021/03/30 09:16:23;;;;;;;17.83;5.88;;;20.70;61.60;;;;;;5136389;27;20035;-55
2021/03/30 09:18:49;;;;;;;16.15;6.90;;;21.00;64.70;;;;;;5136128;27;20146;-55
2021/03/30 09:21:20;;;;;;;17.55;5.90;;;21.30;63.10;;;;;;5136323;27;20054;-55
2021/03/30 09:23:46;;;;;;;18.08;6.07;;;21.20;62.60;;;;;;5136404;27;20035;-56
2021/03/30 09:26:14;;;;;;;18.15;6.13;;;21.40;60.40;;;;;;5136192;27;20111;-55
2021/03/30 09:28:43;;;;;;;15.75;5.63;;;21.40;62.10;;;;;;5136288;27;20043;-55
2021/03/30 09:31:10;;;;;;;15.40;6.35;;;21.40;60.30;;;;;;5136380;27;20134;-55
2021/03/30 09:33:36;;;;;;;16.88;6.63;;;21.70;62.50;;;;;;5136044;27;20039;-55
2021/03/30 09:36:09;;;;;;;15.02;6.57;;;21.80;63.10;;;;;;5136013;27;20049;-55
2021/03/30 09:38:53;;;;;;;15.43;6.82;;;21.90;60.50;;;;;;5116910;27;20039;-55
2021/03/30 09:41:42;;;;;;;16.75;6.43;;;21.90;60.30;;;;;;5135940;27;20039;-55
2021/03/30 09:44:08;;;;;;;15.60;5.60;;;21.90;60.80;;;;;;5117409;27;20039;-55
2021/03/30 09:46:35;;;;;;;10.27;5.95;;;22.00;61.70;;;;;;5135798;27;20031;-55
2021/03/30 09:49:02;;;;;;;16.92;6.30;;;22.00;60.70;;;;;;5134707;27;20058;-56
2021/03/30 09:51:28;;;;;;;15.32;5.80;;;21.80;60.50;;;;;;5135556;27;20053;-55
2021/03/30 09:53:53;;;;;;;11.75;5.72;;;21.60;60.50;;;;;;5135692;27;20044;-55
2021/03/30 09:56:31;;;;;;;15.82;5.95;;;21.50;61.70;;;;;;5135746;27;20054;-55
2021/03/30 09:58:58;;;;;;;16.10;6.38;;;21.10;61.10;;;;;;5135486;27;20043;-55
2021/03/30 10:01:27;;;;;;;13.20;5.80;;;21.10;64.50;;;;;;5135462;27;20043;-55
2021/03/30 10:03:53;;;;;;;15.38;6.25;;;21.20;64.00;;;;;;5135470;27;20043;-55
2021/03/30 10:06:20;;;;;;;17.73;6.15;;;21.30;62.60;;;;;;5135589;27;20042;-55
2021/03/30 10:08:47;;;;;;;13.98;4.93;;;21.40;63.60;;;;;;5135517;27;20081;-55
2021/03/30 10:11:25;;;;;;;10.52;5.20;;;21.20;60.90;;;;;;5135638;27;20046;-55
2021/03/30 10:13:51;;;;;;;15.13;5.50;;;21.20;62.40;;;;;;5135130;27;20134;-55
2021/03/30 10:16:17;;;;;;;15.40;5.57;;;21.00;63.40;;;;;;5135091;27;20114;-55
2021/03/30 10:18:44;;;;;;;12.10;5.43;;;21.10;63.90;;;;;;5135253;27;20066;-55
2021/03/30 10:21:18;;;;;;;13.38;5.65;;;21.10;62.30;;;;;;5134939;27;20043;-55
2021/03/30 10:23:49;;;;;;;14.82;5.72;;;21.30;62.80;;;;;;5134974;27;20051;-55
2021/03/30 10:26:23;;;;;;;14.77;5.45;;;21.20;62.70;;;;;;5138598;27;20084;-55
2021/03/30 10:29:03;;;;;;;12.27;5.40;;;21.30;61.90;;;;;;5155380;27;20042;-55
2021/03/30 10:31:36;;;;;;;11.23;4.88;;;21.30;63.00;;;;;;5155448;27;20125;-55
2021/03/30 10:34:02;;;;;;;12.32;5.10;;;21.40;62.60;;;;;;5155544;27;20106;-55
2021/03/30 10:36:28;;;;;;;16.98;6.00;;;21.50;59.60;;;;;;5155520;27;20448;-55
2021/03/30 10:39:05;;;;;;;17.27;5.72;;;21.50;60.30;;;;;;5155614;27;20486;-55
2021/03/30 10:41:42;;;;;;;16.63;6.68;;;21.20;61.00;;;;;;5155429;27;20054;-55
2021/03/30 10:44:10;;;;;;;12.80;5.78;;;21.60;62.10;;;;;;5155742;27;20049;-56
2021/03/30 10:46:48;;;;;;;16.70;6.15;;;21.60;59.20;;;;;;5155471;27;20811;-55
2021/03/30 10:49:15;;;;;;;11.38;5.47;;;21.40;58.90;;;;;;5155197;27;20066;-55
2021/03/30 10:51:44;;;;;;;17.85;6.07;;;21.40;58.00;;;;;;5155230;27;20117;-55
2021/03/30 10:54:12;;;;;;;16.10;5.47;;;21.50;57.50;;;;;;5155483;27;20054;-55
2021/03/30 10:56:40;;;;;;;20.67;6.80;;;21.60;57.60;;;;;;5155055;27;20046;-55
2021/03/30 10:59:15;;;;;;;17.45;5.65;;;21.60;58.20;;;;;;5155034;27;20065;-55
2021/03/30 11:01:40;;;;;;;15.90;6.72;;;21.60;57.00;;;;;;5154746;27;20038;-55
2021/03/30 11:04:07;;;;;;;14.52;5.35;;;21.60;57.30;;;;;;5154826;27;20042;-55
2021/03/30 11:06:33;;;;;;;11.50;5.03;;;21.50;54.60;;;;;;5155325;27;20042;-55
2021/03/30 11:08:59;;;;;;;14.02;5.40;;;21.50;54.90;;;;;;5154683;27;20083;-55
2021/03/30 11:11:25;;;;;;;14.00;5.22;;;21.80;53.90;;;;;;5154643;27;20069;-55
2021/03/30 11:13:51;;;;;;;14.07;5.03;;;21.90;53.00;;;;;;5154674;27;20464;-55
2021/03/30 11:16:16;;;;;;;13.80;4.90;;;22.10;53.90;;;;;;5154697;27;20062;-55
2021/03/30 11:18:42;;;;;;;15.10;5.47;;;22.20;53.10;;;;;;5154774;27;20042;-55
2021/03/30 11:21:08;;;;;;;11.52;4.80;;;22.20;54.00;;;;;;5154376;27;20077;-55
2021/03/30 11:23:34;;;;;;;14.38;5.00;;;22.10;51.00;;;;;;5154583;27;20400;-55
2021/03/30 11:26:00;;;;;;;10.82;4.20;;;22.20;52.60;;;;;;5154344;27;20054;-56
2021/03/30 11:28:31;;;;;;;15.00;5.13;;;22.20;50.90;;;;;;5154503;27;20042;-56
2021/03/30 11:31:00;;;;;;;12.00;4.53;;;22.20;50.70;;;;;;5154303;27;20038;-55
2021/03/30 11:33:29;;;;;;;13.38;4.85;;;22.30;51.00;;;;;;5154318;27;20062;-55
2021/03/30 11:36:01;;;;;;;13.20;5.25;;;22.70;49.40;;;;;;5154621;27;20039;-56
2021/03/30 11:38:26;;;;;;;10.43;4.60;;;22.50;50.70;;;;;;5154387;27;20042;-55
2021/03/30 11:40:52;;;;;;;11.10;4.43;;;22.70;49.00;;;;;;5154185;27;20047;-55
2021/03/30 11:43:19;;;;;;;16.33;4.30;;;22.90;47.70;;;;;;5154449;27;20399;-55
2021/03/30 11:45:44;;;;;;;8.93;3.88;;;23.20;46.70;;;;;;5154316;27;20146;-55
2021/03/30 11:48:10;;;;;;;9.45;4.22;;;23.10;46.50;;;;;;5153974;27;20121;-55
2021/03/30 11:50:37;;;;;;;13.68;4.95;;;23.20;45.20;;;;;;5154324;27;20056;-56
2021/03/30 11:53:04;;;;;;;10.30;4.15;;;23.10;44.50;;;;;;5154015;27;20069;-55
2021/03/30 11:55:29;;;;;;;10.40;3.60;;;23.20;45.90;;;;;;5153894;27;20491;-55
2021/03/30 11:57:55;;;;;;;9.18;3.60;;;23.20;45.50;;;;;;5154037;27;20042;-56
2021/03/30 12:00:22;;;;;;;9.13;3.42;;;23.20;45.50;;;;;;5153740;27;20042;-55
2021/03/30 12:02:49;;;;;;;9.38;3.40;;;23.00;43.40;;;;;;5154042;27;20043;-55
2021/03/30 12:05:15;;;;;;;10.98;3.15;;;23.00;43.40;;;;;;5153905;27;20357;-56
2021/03/30 12:07:41;;;;;;;12.23;3.60;;;23.20;41.10;;;;;;5153977;27;20042;-55
2021/03/30 12:10:07;;;;;;;8.18;3.65;;;23.30;41.70;;;;;;5153642;27;20540;-56
2021/03/30 12:12:34;;;;;;;7.43;3.80;;;23.50;41.80;;;;;;5153441;27;20495;-55
2021/03/30 12:15:00;;;;;;;8.32;4.10;;;23.40;41.50;;;;;;5153577;27;20043;-56
2021/03/30 12:17:26;;;;;;;8.95;3.75;;;23.70;43.50;;;;;;5153898;27;20038;-55
2021/03/30 12:19:52;;;;;;;11.60;3.78;;;23.60;41.40;;;;;;5153681;27;20050;-56
2021/03/30 12:22:18;;;;;;;9.88;4.20;;;23.60;42.70;;;;;;5153625;27;20154;-55
2021/03/30 12:24:44;;;;;;;8.38;3.92;;;23.40;40.30;;;;;;5153532;27;20494;-55
2021/03/30 12:27:11;;;;;;;7.00;4.07;;;23.60;41.80;;;;;;5153479;27;20053;-55
2021/03/30 12:29:40;;;;;;;11.73;4.43;;;23.70;42.50;;;;;;5153444;27;20044;-55
2021/03/30 12:32:07;;;;;;;9.00;3.42;;;23.70;42.00;;;;;;5134698;27;20051;-55
2021/03/30 12:34:36;;;;;;;11.32;3.53;;;23.90;41.40;;;;;;5153671;27;20042;-55
2021/03/30 12:37:03;;;;;;;8.27;3.25;;;23.90;40.20;;;;;;5118370;27;20043;-55
2021/03/30 12:39:29;;;;;;;6.50;4.05;;;24.00;40.60;;;;;;5153416;27;20042;-56
2021/03/30 12:41:55;;;;;;;7.95;4.00;;;23.90;36.60;;;;;;5153359;27;20104;-55
2021/03/30 12:44:21;;;;;;;8.65;4.60;;;23.70;36.70;;;;;;5153524;27;20426;-55
2021/03/30 12:46:47;;;;;;;9.63;4.60;;;23.80;40.20;;;;;;5153579;27;20043;-56
2021/03/30 12:49:13;;;;;;;7.80;4.05;;;23.70;40.20;;;;;;5153307;27;20046;-56
2021/03/30 12:51:40;;;;;;;10.32;4.30;;;23.80;40.80;;;;;;5153347;27;20103;-56
2021/03/30 12:54:06;;;;;;;8.07;4.13;;;23.60;38.10;;;;;;5153315;27;20039;-55
2021/03/30 12:56:32;;;;;;;8.68;3.88;;;23.80;40.50;;;;;;5153246;27;20046;-55